THT88 NTAA-RJAA
Flight info
| Callsign | THT88 |
|---|---|
| Flight time | N/A |
| Altitude | 34000 |
| Route | VAITE4E VAITE DCT 14S155W 1249S15700W 11S160W 08S165W 05S170W 01S175W/N0477F360 0332N18000E 06N175E 10N170E/N0471F380 14N165E 18N160E 23N155E 28N150E/N0463F400 TONIK G223 BEGAD Y817 MENIX Y813 LUBLA |
| Aircraft | A343/H-SDE2E3FGHIJ4J5M1RWXY/LB1D1 |
Departure
| Time | 2026-04-30 20:26 |
|---|---|
| Airport | Fa'a'ā International Airport (NTAA) |
Arrival
| Time | N/A |
|---|---|
| Airport | Narita International Airport (RJAA) |
| Time | Latitude | Longitude | Altitude | Speed | Heading |
|---|---|---|---|---|---|
| 2026-04-30 18:57 | -17.55816 | -149.60954 | 31 ft | 0 kts | 144° |
| 2026-04-30 20:13 | -17.55799 | -149.60967 | 31 ft | 4 kts | 144° |
| 2026-04-30 20:13 | -17.55777 | -149.60983 | 31 ft | 4 kts | 151° |
| 2026-04-30 20:14 | -17.55753 | -149.60990 | 31 ft | 4 kts | 192° |
| 2026-04-30 20:14 | -17.55731 | -149.60978 | 31 ft | 4 kts | 231° |
| 2026-04-30 20:14 | -17.55727 | -149.60974 | 31 ft | 5 kts | 234° |
| 2026-04-30 20:18 | -17.55732 | -149.60981 | 31 ft | 3 kts | 234° |
| 2026-04-30 20:18 | -17.55744 | -149.60998 | 31 ft | 3 kts | 234° |
| 2026-04-30 20:19 | -17.55754 | -149.61013 | 31 ft | 3 kts | 234° |
| 2026-04-30 20:19 | -17.55762 | -149.61027 | 30 ft | 4 kts | 244° |
| 2026-04-30 20:19 | -17.55759 | -149.61064 | 29 ft | 4 kts | 299° |
| 2026-04-30 20:19 | -17.55734 | -149.61090 | 29 ft | 6 kts | 319° |
| 2026-04-30 20:20 | -17.55696 | -149.61122 | 28 ft | 8 kts | 321° |
| 2026-04-30 20:20 | -17.55677 | -149.61173 | 27 ft | 6 kts | 259° |
| 2026-04-30 20:20 | -17.55703 | -149.61210 | 26 ft | 7 kts | 233° |
| 2026-04-30 20:20 | -17.55738 | -149.61259 | 29 ft | 10 kts | 233° |
| 2026-04-30 20:21 | -17.55784 | -149.61324 | 27 ft | 12 kts | 233° |
| 2026-04-30 20:21 | -17.55837 | -149.61402 | 25 ft | 14 kts | 234° |
| 2026-04-30 20:21 | -17.55894 | -149.61485 | 29 ft | 14 kts | 234° |
| 2026-04-30 20:21 | -17.55954 | -149.61573 | 30 ft | 16 kts | 234° |
| 2026-04-30 20:22 | -17.56019 | -149.61668 | 29 ft | 16 kts | 234° |
| 2026-04-30 20:22 | -17.56081 | -149.61758 | 26 ft | 14 kts | 234° |
| 2026-04-30 20:22 | -17.56135 | -149.61838 | 26 ft | 13 kts | 234° |
| 2026-04-30 20:22 | -17.56189 | -149.61914 | 31 ft | 13 kts | 233° |
| 2026-04-30 20:23 | -17.56214 | -149.61971 | 28 ft | 0 kts | 261° |
| 2026-04-30 20:23 | -17.56214 | -149.61975 | 30 ft | 2 kts | 261° |
| 2026-04-30 20:23 | -17.56218 | -149.62000 | 26 ft | 5 kts | 261° |
| 2026-04-30 20:23 | -17.56237 | -149.62025 | 26 ft | 3 kts | 201° |
| 2026-04-30 20:24 | -17.56253 | -149.62007 | 32 ft | 3 kts | 97° |
| 2026-04-30 20:24 | -17.56244 | -149.61992 | 30 ft | 0 kts | 55° |
| 2026-04-30 20:24 | -17.56244 | -149.61991 | 30 ft | 1 kts | 55° |
| 2026-04-30 20:25 | -17.55945 | -149.61562 | 30 ft | 83 kts | 53° |
| 2026-04-30 20:25 | -17.55524 | -149.60947 | 30 ft | 123 kts | 54° |
| 2026-04-30 20:26 | -17.54300 | -149.59144 | 382 ft | 157 kts | 52° |
| 2026-04-30 20:26 | -17.53153 | -149.57387 | 1357 ft | 147 kts | 54° |
| 2026-04-30 20:26 | -17.52351 | -149.56645 | 1539 ft | 166 kts | 33° |
| 2026-04-30 20:27 | -17.50209 | -149.57528 | 1704 ft | 199 kts | 298° |
| 2026-04-30 20:27 | -17.48976 | -149.60262 | 2025 ft | 217 kts | 298° |
| 2026-04-30 20:28 | -17.47506 | -149.63142 | 2574 ft | 229 kts | 302° |
| 2026-04-30 20:28 | -17.45903 | -149.66077 | 3336 ft | 230 kts | 302° |
| 2026-04-30 20:29 | -17.43982 | -149.68883 | 3730 ft | 247 kts | 322° |
| 2026-04-30 20:30 | -17.39631 | -149.72429 | 4273 ft | 281 kts | 324° |
| 2026-04-30 20:30 | -17.35355 | -149.76795 | 5354 ft | 295 kts | 309° |
| 2026-04-30 20:31 | -17.31926 | -149.82158 | 6629 ft | 299 kts | 304° |
| 2026-04-30 20:32 | -17.28545 | -149.87714 | 7798 ft | 303 kts | 304° |
| 2026-04-30 20:32 | -17.26247 | -149.91444 | 8570 ft | 307 kts | 305° |
| 2026-04-30 20:33 | -17.25076 | -149.93336 | 8884 ft | 312 kts | 306° |
| 2026-04-30 20:33 | -17.22704 | -149.97160 | 9710 ft | 314 kts | 304° |
| 2026-04-30 20:33 | -17.21514 | -149.99080 | 10057 ft | 317 kts | 305° |
| 2026-04-30 20:34 | -17.19045 | -150.03054 | 10383 ft | 335 kts | 304° |
| 2026-04-30 20:34 | -17.16446 | -150.07238 | 10719 ft | 351 kts | 305° |
| 2026-04-30 20:35 | -17.15100 | -150.09405 | 10840 ft | 360 kts | 304° |
| 2026-04-30 20:35 | -17.13725 | -150.11620 | 10996 ft | 367 kts | 304° |
| 2026-04-30 20:35 | -17.10895 | -150.16178 | 11263 ft | 380 kts | 305° |
| 2026-04-30 20:36 | -17.09440 | -150.18518 | 11380 ft | 388 kts | 304° |
| 2026-04-30 20:36 | -17.07963 | -150.20893 | 11550 ft | 392 kts | 304° |
| 2026-04-30 20:36 | -17.04961 | -150.25720 | 11952 ft | 399 kts | 304° |
| 2026-04-30 20:37 | -17.03453 | -150.28144 | 12321 ft | 397 kts | 304° |
| 2026-04-30 20:37 | -17.01944 | -150.30570 | 12533 ft | 400 kts | 304° |
| 2026-04-30 20:37 | -17.00426 | -150.33005 | 12843 ft | 400 kts | 304° |
| 2026-04-30 20:37 | -16.98911 | -150.35437 | 13137 ft | 400 kts | 304° |
| 2026-04-30 20:38 | -16.97384 | -150.37887 | 13311 ft | 404 kts | 304° |
| 2026-04-30 20:38 | -16.95847 | -150.40352 | 13552 ft | 405 kts | 304° |
| 2026-04-30 20:38 | -16.94309 | -150.42818 | 13795 ft | 407 kts | 304° |
| 2026-04-30 20:39 | -16.91734 | -150.46943 | 14147 ft | 409 kts | 304° |
| 2026-04-30 20:39 | -16.90184 | -150.49427 | 14445 ft | 408 kts | 304° |
| 2026-04-30 20:39 | -16.88631 | -150.51912 | 14657 ft | 409 kts | 304° |
| 2026-04-30 20:40 | -16.85521 | -150.56890 | 15151 ft | 410 kts | 305° |
| 2026-04-30 20:40 | -16.83447 | -150.60206 | 15385 ft | 413 kts | 304° |
| 2026-04-30 20:40 | -16.82386 | -150.61901 | 15565 ft | 413 kts | 304° |
| 2026-04-30 20:41 | -16.79226 | -150.66950 | 15901 ft | 418 kts | 305° |
| 2026-04-30 20:41 | -16.77635 | -150.69489 | 16160 ft | 418 kts | 304° |
| 2026-04-30 20:41 | -16.76041 | -150.72036 | 16366 ft | 420 kts | 304° |
| 2026-04-30 20:41 | -16.74441 | -150.74588 | 16592 ft | 421 kts | 304° |
| 2026-04-30 20:42 | -16.72842 | -150.77140 | 16859 ft | 420 kts | 304° |
| 2026-04-30 20:42 | -16.71242 | -150.79692 | 17099 ft | 421 kts | 304° |
| 2026-04-30 20:42 | -16.68025 | -150.84817 | 17526 ft | 424 kts | 305° |
| 2026-04-30 20:43 | -16.66411 | -150.87388 | 17727 ft | 425 kts | 304° |
| 2026-04-30 20:43 | -16.64790 | -150.89969 | 17967 ft | 425 kts | 304° |
| 2026-04-30 20:43 | -16.63166 | -150.92553 | 18185 ft | 427 kts | 304° |
| 2026-04-30 20:44 | -16.59906 | -150.97740 | 18564 ft | 429 kts | 304° |
| 2026-04-30 20:44 | -16.58289 | -151.00312 | 18726 ft | 430 kts | 304° |
| 2026-04-30 20:44 | -16.54995 | -151.05546 | 19043 ft | 434 kts | 304° |
| 2026-04-30 20:45 | -16.51676 | -151.10815 | 19439 ft | 435 kts | 304° |
| 2026-04-30 20:45 | -16.50018 | -151.13446 | 19608 ft | 437 kts | 304° |
| 2026-04-30 20:45 | -16.48321 | -151.16139 | 19799 ft | 437 kts | 304° |
| 2026-04-30 20:46 | -16.43310 | -151.24082 | 20321 ft | 441 kts | 305° |
| 2026-04-30 20:46 | -16.41621 | -151.26756 | 20491 ft | 443 kts | 304° |
| 2026-04-30 20:47 | -16.38233 | -151.32121 | 20862 ft | 444 kts | 304° |
| 2026-04-30 20:47 | -16.36532 | -151.34812 | 21063 ft | 445 kts | 304° |
| 2026-04-30 20:48 | -16.33127 | -151.40198 | 21443 ft | 447 kts | 304° |
| 2026-04-30 20:48 | -16.31415 | -151.42904 | 21611 ft | 448 kts | 304° |
| 2026-04-30 20:48 | -16.29697 | -151.45618 | 21733 ft | 451 kts | 304° |
| 2026-04-30 20:48 | -16.27967 | -151.48350 | 21885 ft | 452 kts | 304° |
| 2026-04-30 20:49 | -16.26236 | -151.51083 | 22098 ft | 452 kts | 304° |
| 2026-04-30 20:49 | -16.24502 | -151.53819 | 22267 ft | 454 kts | 303° |
| 2026-04-30 20:49 | -16.22764 | -151.56562 | 22471 ft | 454 kts | 303° |
| 2026-04-30 20:50 | -16.19271 | -151.62069 | 22801 ft | 457 kts | 303° |
| 2026-04-30 20:50 | -16.17518 | -151.64831 | 22959 ft | 458 kts | 303° |
| 2026-04-30 20:50 | -16.15758 | -151.67602 | 23121 ft | 460 kts | 303° |
| 2026-04-30 20:50 | -16.13993 | -151.70381 | 23315 ft | 460 kts | 303° |
| 2026-04-30 20:51 | -16.12226 | -151.73163 | 23488 ft | 462 kts | 303° |
| 2026-04-30 20:51 | -16.08679 | -151.78742 | 23804 ft | 464 kts | 303° |
| 2026-04-30 20:51 | -16.06899 | -151.81541 | 23945 ft | 465 kts | 303° |
| 2026-04-30 20:52 | -16.05111 | -151.84349 | 24089 ft | 466 kts | 303° |
| 2026-04-30 20:52 | -16.03322 | -151.87159 | 24237 ft | 467 kts | 303° |
| 2026-04-30 20:52 | -15.99728 | -151.92801 | 24556 ft | 469 kts | 303° |
| 2026-04-30 20:53 | -15.97929 | -151.95624 | 24717 ft | 469 kts | 303° |
| 2026-04-30 20:53 | -15.96123 | -151.98456 | 24878 ft | 470 kts | 303° |
| 2026-04-30 20:53 | -15.94314 | -152.01293 | 25016 ft | 472 kts | 303° |
| 2026-04-30 20:54 | -15.90679 | -152.06990 | 25304 ft | 474 kts | 303° |
| 2026-04-30 20:54 | -15.88879 | -152.09808 | 25498 ft | 475 kts | 303° |
| 2026-04-30 20:54 | -15.87052 | -152.12668 | 25632 ft | 476 kts | 303° |
| 2026-04-30 20:55 | -15.83385 | -152.18406 | 25942 ft | 478 kts | 303° |
| 2026-04-30 20:55 | -15.81545 | -152.21283 | 26102 ft | 479 kts | 303° |
| 2026-04-30 20:55 | -15.79698 | -152.24169 | 26221 ft | 481 kts | 303° |
| 2026-04-30 20:56 | -15.75978 | -152.29980 | 26503 ft | 484 kts | 302° |
| 2026-04-30 20:56 | -15.74114 | -152.32891 | 26651 ft | 485 kts | 303° |
| 2026-04-30 20:56 | -15.70372 | -152.38728 | 26946 ft | 487 kts | 303° |
| 2026-04-30 20:57 | -15.68493 | -152.41659 | 27109 ft | 488 kts | 302° |
| 2026-04-30 20:57 | -15.66608 | -152.44597 | 27235 ft | 490 kts | 302° |
| 2026-04-30 20:57 | -15.64716 | -152.47546 | 27393 ft | 491 kts | 303° |
| 2026-04-30 20:58 | -15.60927 | -152.53445 | 27722 ft | 492 kts | 303° |
| 2026-04-30 20:58 | -15.59025 | -152.56406 | 27899 ft | 493 kts | 302° |
| 2026-04-30 20:58 | -15.57122 | -152.59367 | 27993 ft | 495 kts | 303° |
| 2026-04-30 20:58 | -15.55209 | -152.62341 | 28152 ft | 496 kts | 302° |
| 2026-04-30 20:59 | -15.51364 | -152.68317 | 28401 ft | 499 kts | 303° |
| 2026-04-30 20:59 | -15.49436 | -152.71311 | 28572 ft | 499 kts | 303° |
| 2026-04-30 21:00 | -15.45590 | -152.77279 | 29026 ft | 498 kts | 302° |
| 2026-04-30 21:00 | -15.41745 | -152.83243 | 29405 ft | 497 kts | 302° |
| 2026-04-30 21:01 | -15.37913 | -152.89182 | 29956 ft | 494 kts | 302° |
| 2026-04-30 21:01 | -15.36004 | -152.92140 | 30126 ft | 494 kts | 302° |
| 2026-04-30 21:01 | -15.32190 | -152.98043 | 30489 ft | 493 kts | 302° |
| 2026-04-30 21:02 | -15.30285 | -153.00990 | 30699 ft | 492 kts | 302° |
| 2026-04-30 21:02 | -15.28383 | -153.03932 | 30874 ft | 491 kts | 302° |
| 2026-04-30 21:02 | -15.26506 | -153.06833 | 31036 ft | 491 kts | 302° |
| 2026-04-30 21:02 | -15.24580 | -153.09811 | 31208 ft | 491 kts | 302° |
| 2026-04-30 21:03 | -15.22707 | -153.12703 | 31420 ft | 490 kts | 302° |
| 2026-04-30 21:03 | -15.20814 | -153.15626 | 31673 ft | 487 kts | 302° |
| 2026-04-30 21:03 | -15.18930 | -153.18534 | 31910 ft | 486 kts | 302° |
| 2026-04-30 21:03 | -15.17051 | -153.21434 | 32093 ft | 485 kts | 302° |
| 2026-04-30 21:04 | -15.15171 | -153.24334 | 32260 ft | 485 kts | 302° |
| 2026-04-30 21:04 | -15.13292 | -153.27231 | 32448 ft | 484 kts | 302° |
| 2026-04-30 21:04 | -15.09546 | -153.33004 | 32797 ft | 483 kts | 302° |
| 2026-04-30 21:05 | -15.07675 | -153.35886 | 32977 ft | 482 kts | 302° |
| 2026-04-30 21:05 | -15.05805 | -153.38765 | 33143 ft | 481 kts | 302° |
| 2026-04-30 21:05 | -15.03938 | -153.41637 | 33303 ft | 481 kts | 302° |
| 2026-04-30 21:05 | -15.02075 | -153.44504 | 33465 ft | 480 kts | 302° |
| 2026-04-30 21:06 | -15.00219 | -153.47358 | 33778 ft | 476 kts | 302° |
| 2026-04-30 21:06 | -14.98374 | -153.50194 | 33949 ft | 475 kts | 302° |
| 2026-04-30 21:06 | -14.94720 | -153.55806 | 33985 ft | 464 kts | 302° |
| 2026-04-30 21:07 | -14.91126 | -153.61325 | 33985 ft | 462 kts | 302° |
| 2026-04-30 21:07 | -14.87538 | -153.66833 | 33985 ft | 462 kts | 302° |
| 2026-04-30 21:08 | -14.83946 | -153.72342 | 33985 ft | 462 kts | 302° |
| 2026-04-30 21:08 | -14.80353 | -153.77846 | 33985 ft | 461 kts | 302° |
| 2026-04-30 21:09 | -14.76765 | -153.83340 | 33985 ft | 461 kts | 302° |
| 2026-04-30 21:09 | -14.73176 | -153.88832 | 33985 ft | 462 kts | 302° |
| 2026-04-30 21:10 | -14.69572 | -153.94343 | 34054 ft | 464 kts | 302° |
| 2026-04-30 21:10 | -14.65948 | -153.99882 | 34133 ft | 467 kts | 302° |
| 2026-04-30 21:11 | -14.62294 | -154.05462 | 34209 ft | 470 kts | 301° |
| 2026-04-30 21:11 | -14.58624 | -154.11062 | 34363 ft | 472 kts | 301° |
| 2026-04-30 21:12 | -14.54936 | -154.16685 | 34474 ft | 474 kts | 301° |
| 2026-04-30 21:12 | -14.51264 | -154.22280 | 34641 ft | 474 kts | 301° |
| 2026-04-30 21:13 | -14.47560 | -154.27918 | 34803 ft | 474 kts | 301° |
| 2026-04-30 21:13 | -14.43848 | -154.33568 | 34915 ft | 476 kts | 301° |
| 2026-04-30 21:14 | -14.40134 | -154.39214 | 35155 ft | 474 kts | 301° |
| 2026-04-30 21:14 | -14.36426 | -154.44847 | 35306 ft | 475 kts | 301° |
| 2026-04-30 21:15 | -14.32716 | -154.50481 | 35449 ft | 475 kts | 301° |
| 2026-04-30 21:15 | -14.29003 | -154.56116 | 35594 ft | 475 kts | 300° |
| 2026-04-30 21:16 | -14.25285 | -154.61753 | 35739 ft | 475 kts | 300° |
| 2026-04-30 21:16 | -14.21566 | -154.67390 | 35845 ft | 476 kts | 300° |
| 2026-04-30 21:17 | -14.17831 | -154.73047 | 35841 ft | 479 kts | 300° |
| 2026-04-30 21:17 | -14.14078 | -154.78725 | 35966 ft | 480 kts | 300° |
| 2026-04-30 21:18 | -14.10309 | -154.84426 | 35979 ft | 482 kts | 300° |
| 2026-04-30 21:18 | -14.06537 | -154.90124 | 35975 ft | 481 kts | 300° |
| 2026-04-30 21:19 | -14.02773 | -154.95807 | 35967 ft | 480 kts | 300° |
| 2026-04-30 21:19 | -13.99017 | -155.01493 | 35982 ft | 480 kts | 299° |
| 2026-04-30 21:20 | -13.95533 | -155.07344 | 35962 ft | 478 kts | 296° |
| 2026-04-30 21:20 | -13.92178 | -155.13253 | 35971 ft | 478 kts | 296° |
| 2026-04-30 21:21 | -13.88806 | -155.19108 | 35973 ft | 479 kts | 297° |
| 2026-04-30 21:22 | -13.83653 | -155.27913 | 35964 ft | 479 kts | 297° |
| 2026-04-30 21:23 | -13.76767 | -155.39630 | 35974 ft | 478 kts | 297° |
| 2026-04-30 21:23 | -13.71607 | -155.48407 | 35971 ft | 478 kts | 297° |
| 2026-04-30 21:24 | -13.68166 | -155.54256 | 35964 ft | 478 kts | 297° |
| 2026-04-30 21:24 | -13.64725 | -155.60102 | 35970 ft | 478 kts | 297° |
| 2026-04-30 21:25 | -13.59547 | -155.68890 | 35973 ft | 481 kts | 297° |
| 2026-04-30 21:26 | -13.54343 | -155.77712 | 35970 ft | 481 kts | 297° |
| 2026-04-30 21:27 | -13.49723 | -155.85536 | 35968 ft | 481 kts | 297° |
| 2026-04-30 21:27 | -13.46249 | -155.91414 | 35960 ft | 481 kts | 297° |
| 2026-04-30 21:28 | -13.41041 | -156.00220 | 35965 ft | 481 kts | 297° |
| 2026-04-30 21:29 | -13.35833 | -156.09017 | 35964 ft | 480 kts | 297° |
| 2026-04-30 21:30 | -13.27149 | -156.23666 | 35968 ft | 480 kts | 297° |
| 2026-04-30 21:31 | -13.18427 | -156.38355 | 35961 ft | 483 kts | 297° |
| 2026-04-30 21:32 | -13.13178 | -156.47180 | 35964 ft | 482 kts | 297° |
| 2026-04-30 21:32 | -13.09685 | -156.53049 | 35961 ft | 482 kts | 297° |
| 2026-04-30 21:33 | -13.04470 | -156.61806 | 35961 ft | 482 kts | 297° |
| 2026-04-30 21:34 | -13.00972 | -156.67675 | 35969 ft | 482 kts | 297° |
| 2026-04-30 21:34 | -12.95718 | -156.76480 | 35961 ft | 483 kts | 297° |
| 2026-04-30 21:35 | -12.92215 | -156.82347 | 35961 ft | 483 kts | 297° |
| 2026-04-30 21:35 | -12.88709 | -156.88215 | 35964 ft | 482 kts | 297° |
| 2026-04-30 21:36 | -12.85206 | -156.94074 | 35960 ft | 481 kts | 297° |
| 2026-04-30 21:37 | -12.78221 | -157.05765 | 35957 ft | 481 kts | 297° |
| 2026-04-30 21:37 | -12.74731 | -157.11619 | 35960 ft | 482 kts | 297° |
| 2026-04-30 21:38 | -12.71232 | -157.17481 | 35960 ft | 482 kts | 297° |
| 2026-04-30 21:38 | -12.67733 | -157.23338 | 35958 ft | 482 kts | 298° |
| 2026-04-30 21:39 | -12.64236 | -157.29188 | 35961 ft | 481 kts | 298° |
| 2026-04-30 21:39 | -12.60740 | -157.35032 | 35961 ft | 481 kts | 298° |
| 2026-04-30 21:40 | -12.57246 | -157.40870 | 35960 ft | 481 kts | 298° |
| 2026-04-30 21:40 | -12.53749 | -157.46711 | 35960 ft | 481 kts | 298° |
| 2026-04-30 21:41 | -12.50250 | -157.52549 | 35953 ft | 481 kts | 298° |
| 2026-04-30 21:41 | -12.46749 | -157.58388 | 35957 ft | 482 kts | 298° |
| 2026-04-30 21:42 | -12.43265 | -157.64194 | 35957 ft | 482 kts | 298° |
| 2026-04-30 21:42 | -12.39757 | -157.70035 | 35958 ft | 482 kts | 298° |
| 2026-04-30 21:43 | -12.36248 | -157.75876 | 35957 ft | 482 kts | 298° |
| 2026-04-30 21:43 | -12.32739 | -157.81714 | 35958 ft | 482 kts | 298° |
| 2026-04-30 21:44 | -12.29227 | -157.87552 | 35955 ft | 482 kts | 298° |
| 2026-04-30 21:44 | -12.25717 | -157.93385 | 35957 ft | 482 kts | 298° |
| 2026-04-30 21:45 | -12.22201 | -157.99221 | 35958 ft | 482 kts | 298° |
| 2026-04-30 21:45 | -12.18686 | -158.05056 | 35957 ft | 482 kts | 298° |
| 2026-04-30 21:46 | -12.15162 | -158.10899 | 35958 ft | 483 kts | 298° |
| 2026-04-30 21:46 | -12.11638 | -158.16739 | 35955 ft | 483 kts | 298° |
| 2026-04-30 21:47 | -12.08112 | -158.22579 | 35954 ft | 483 kts | 298° |
| 2026-04-30 21:47 | -12.04587 | -158.28415 | 35954 ft | 482 kts | 298° |
| 2026-04-30 21:48 | -12.01066 | -158.34238 | 35955 ft | 481 kts | 298° |
| 2026-04-30 21:48 | -11.97549 | -158.40053 | 35955 ft | 481 kts | 298° |
| 2026-04-30 21:49 | -11.94034 | -158.45862 | 35952 ft | 481 kts | 298° |
| 2026-04-30 21:49 | -11.90513 | -158.51676 | 35947 ft | 481 kts | 298° |
| 2026-04-30 21:50 | -11.86988 | -158.57493 | 35952 ft | 482 kts | 298° |
| 2026-04-30 21:50 | -11.83459 | -158.63315 | 35955 ft | 482 kts | 298° |
| 2026-04-30 21:51 | -11.79928 | -158.69134 | 35952 ft | 482 kts | 298° |
| 2026-04-30 21:51 | -11.76397 | -158.74951 | 35953 ft | 482 kts | 298° |
| 2026-04-30 21:52 | -11.72863 | -158.80769 | 35952 ft | 482 kts | 298° |
| 2026-04-30 21:52 | -11.69331 | -158.86582 | 35950 ft | 482 kts | 298° |
| 2026-04-30 21:53 | -11.65821 | -158.92354 | 35953 ft | 482 kts | 298° |
| 2026-04-30 21:53 | -11.62287 | -158.98162 | 35952 ft | 482 kts | 298° |
| 2026-04-30 21:54 | -11.58752 | -159.03969 | 35955 ft | 482 kts | 298° |
| 2026-04-30 21:54 | -11.55212 | -159.09781 | 35954 ft | 483 kts | 299° |
| 2026-04-30 21:55 | -11.51667 | -159.15596 | 35954 ft | 483 kts | 299° |
| 2026-04-30 21:55 | -11.48123 | -159.21407 | 35955 ft | 482 kts | 299° |
| 2026-04-30 21:56 | -11.44580 | -159.27213 | 35951 ft | 482 kts | 299° |
| 2026-04-30 21:56 | -11.41036 | -159.33018 | 35953 ft | 482 kts | 299° |
| 2026-04-30 21:57 | -11.37490 | -159.38822 | 35955 ft | 482 kts | 299° |
| 2026-04-30 21:57 | -11.33944 | -159.44623 | 35957 ft | 482 kts | 299° |
| 2026-04-30 21:58 | -11.30420 | -159.50386 | 35954 ft | 482 kts | 299° |
| 2026-04-30 21:58 | -11.26871 | -159.56185 | 35948 ft | 482 kts | 299° |
| 2026-04-30 21:59 | -11.23328 | -159.61971 | 35959 ft | 481 kts | 299° |
| 2026-04-30 22:00 | -11.18013 | -159.70646 | 35949 ft | 481 kts | 299° |
| 2026-04-30 22:00 | -11.12695 | -159.79318 | 35961 ft | 481 kts | 299° |
| 2026-04-30 22:01 | -11.09147 | -159.85100 | 35947 ft | 481 kts | 299° |
| 2026-04-30 22:01 | -11.05601 | -159.90874 | 35956 ft | 481 kts | 299° |
| 2026-04-30 22:02 | -11.02057 | -159.96643 | 35941 ft | 480 kts | 299° |
| 2026-04-30 22:02 | -10.98527 | -160.02417 | 35952 ft | 480 kts | 298° |
| 2026-04-30 22:03 | -10.95104 | -160.08243 | 35941 ft | 479 kts | 297° |
| 2026-04-30 22:03 | -10.91708 | -160.14077 | 35940 ft | 478 kts | 297° |
| 2026-04-30 22:04 | -10.88306 | -160.19890 | 35940 ft | 478 kts | 297° |
| 2026-04-30 22:05 | -10.83181 | -160.28603 | 35952 ft | 479 kts | 297° |
| 2026-04-30 22:05 | -10.79760 | -160.34412 | 35950 ft | 479 kts | 297° |
| 2026-04-30 22:06 | -10.76339 | -160.40217 | 35942 ft | 478 kts | 297° |
| 2026-04-30 22:06 | -10.71208 | -160.48920 | 35946 ft | 478 kts | 297° |
| 2026-04-30 22:07 | -10.67785 | -160.54723 | 35947 ft | 479 kts | 298° |
| 2026-04-30 22:07 | -10.64359 | -160.60527 | 35949 ft | 479 kts | 298° |
| 2026-04-30 22:08 | -10.60932 | -160.66330 | 35945 ft | 479 kts | 298° |
| 2026-04-30 22:08 | -10.57504 | -160.72130 | 35947 ft | 479 kts | 298° |
| 2026-04-30 22:09 | -10.54074 | -160.77932 | 35930 ft | 479 kts | 298° |
| 2026-04-30 22:09 | -10.50643 | -160.83733 | 35927 ft | 479 kts | 298° |
| 2026-04-30 22:10 | -10.47234 | -160.89492 | 35918 ft | 479 kts | 298° |
| 2026-04-30 22:10 | -10.43807 | -160.95280 | 35913 ft | 478 kts | 298° |
| 2026-04-30 22:11 | -10.38665 | -161.03958 | 35912 ft | 478 kts | 298° |
| 2026-04-30 22:12 | -10.35239 | -161.09736 | 35914 ft | 478 kts | 298° |
| 2026-04-30 22:12 | -10.31812 | -161.15514 | 35918 ft | 478 kts | 298° |
| 2026-04-30 22:13 | -10.28382 | -161.21293 | 35926 ft | 478 kts | 298° |
| 2026-04-30 22:13 | -10.24951 | -161.27070 | 35941 ft | 478 kts | 298° |
| 2026-04-30 22:14 | -10.21518 | -161.32848 | 35940 ft | 478 kts | 298° |
| 2026-04-30 22:14 | -10.18087 | -161.38620 | 35938 ft | 478 kts | 298° |
| 2026-04-30 22:15 | -10.14652 | -161.44395 | 35942 ft | 478 kts | 298° |
| 2026-04-30 22:15 | -10.11798 | -161.49192 | 35943 ft | 478 kts | 298° |
| 2026-04-30 22:16 | -10.08362 | -161.54964 | 35941 ft | 478 kts | 298° |
| 2026-04-30 22:17 | -10.01482 | -161.66512 | 35939 ft | 479 kts | 298° |
| 2026-04-30 22:17 | -9.96309 | -161.75187 | 35936 ft | 479 kts | 298° |
| 2026-04-30 22:18 | -9.91136 | -161.83856 | 35938 ft | 479 kts | 298° |
| 2026-04-30 22:19 | -9.85964 | -161.92515 | 35931 ft | 478 kts | 298° |
| 2026-04-30 22:20 | -9.80803 | -162.01153 | 35936 ft | 477 kts | 298° |
| 2026-04-30 22:20 | -9.75640 | -162.09786 | 35933 ft | 477 kts | 298° |
| 2026-04-30 22:21 | -9.72198 | -162.15539 | 35931 ft | 477 kts | 298° |
| 2026-04-30 22:21 | -9.68754 | -162.21291 | 35936 ft | 477 kts | 298° |
| 2026-04-30 22:22 | -9.65308 | -162.27043 | 35932 ft | 477 kts | 298° |
| 2026-04-30 22:22 | -9.61865 | -162.32789 | 35933 ft | 476 kts | 298° |
| 2026-04-30 22:23 | -9.58425 | -162.38526 | 35933 ft | 476 kts | 298° |
| 2026-04-30 22:23 | -9.54983 | -162.44265 | 35934 ft | 476 kts | 298° |
| 2026-04-30 22:24 | -9.51541 | -162.50000 | 35933 ft | 476 kts | 298° |
| 2026-04-30 22:24 | -9.48097 | -162.55734 | 35930 ft | 476 kts | 298° |
| 2026-04-30 22:25 | -9.44652 | -162.61471 | 35928 ft | 476 kts | 298° |
| 2026-04-30 22:25 | -9.41210 | -162.67197 | 35930 ft | 476 kts | 298° |
| 2026-04-30 22:26 | -9.36071 | -162.75743 | 35927 ft | 476 kts | 298° |
| 2026-04-30 22:27 | -9.32604 | -162.81505 | 35926 ft | 476 kts | 298° |
| 2026-04-30 22:27 | -9.27458 | -162.90054 | 35928 ft | 476 kts | 298° |
| 2026-04-30 22:28 | -9.22287 | -162.98637 | 35927 ft | 476 kts | 298° |
| 2026-04-30 22:29 | -9.15400 | -163.10059 | 35925 ft | 475 kts | 298° |
| 2026-04-30 22:31 | -9.03337 | -163.30040 | 35922 ft | 476 kts | 298° |
| 2026-04-30 22:32 | -8.94728 | -163.44281 | 35926 ft | 476 kts | 298° |
| 2026-04-30 22:33 | -8.86093 | -163.58551 | 35921 ft | 476 kts | 298° |
| 2026-04-30 22:35 | -8.77460 | -163.72801 | 35922 ft | 474 kts | 298° |
| 2026-04-30 22:36 | -8.68844 | -163.87007 | 35922 ft | 474 kts | 299° |
| 2026-04-30 22:37 | -8.61941 | -163.98377 | 35919 ft | 474 kts | 299° |
| 2026-04-30 22:38 | -8.55037 | -164.09741 | 35917 ft | 475 kts | 299° |
| 2026-04-30 22:39 | -8.49851 | -164.18269 | 35922 ft | 475 kts | 299° |
| 2026-04-30 22:40 | -8.39481 | -164.35309 | 35911 ft | 475 kts | 299° |
| 2026-04-30 22:41 | -8.30791 | -164.49573 | 35918 ft | 481 kts | 299° |
| 2026-04-30 22:43 | -8.20211 | -164.66915 | 35914 ft | 483 kts | 299° |
| 2026-04-30 22:44 | -8.13166 | -164.78454 | 35911 ft | 483 kts | 299° |
| 2026-04-30 22:45 | -8.02615 | -164.95716 | 35914 ft | 483 kts | 299° |
| 2026-04-30 22:47 | -7.92213 | -165.13133 | 35909 ft | 483 kts | 298° |
| 2026-04-30 22:48 | -7.85351 | -165.24763 | 35909 ft | 482 kts | 298° |
| 2026-04-30 22:49 | -7.75026 | -165.42193 | 35911 ft | 483 kts | 298° |
| 2026-04-30 22:51 | -7.64687 | -165.59630 | 35910 ft | 483 kts | 298° |
| 2026-04-30 22:52 | -7.59513 | -165.68347 | 35903 ft | 483 kts | 298° |
| 2026-04-30 22:53 | -7.52637 | -165.79926 | 35904 ft | 483 kts | 298° |
| 2026-04-30 22:53 | -7.47455 | -165.88646 | 35903 ft | 484 kts | 298° |
| 2026-04-30 22:55 | -7.38814 | -166.03175 | 35901 ft | 483 kts | 298° |
| 2026-04-30 22:56 | -7.31896 | -166.14798 | 35893 ft | 484 kts | 298° |
| 2026-04-30 22:57 | -7.23239 | -166.29329 | 35900 ft | 484 kts | 298° |
| 2026-04-30 22:58 | -7.16309 | -166.40953 | 35900 ft | 484 kts | 298° |
| 2026-04-30 22:59 | -7.05913 | -166.58375 | 35898 ft | 484 kts | 299° |